createdAt,value
2023-05-18T00:00:39.646Z,99963.38
2023-05-18T00:01:41.994Z,99968.22
2023-05-18T00:02:44.335Z,99963.83
2023-05-18T00:03:46.753Z,99965.30
2023-05-18T00:04:49.135Z,99961.62
2023-05-18T00:05:51.778Z,99965.30
2023-05-18T00:06:58.044Z,99965.11
2023-05-18T00:08:01.138Z,99964.25
2023-05-18T00:09:03.347Z,99962.37
2023-05-18T00:10:07.678Z,99965.94
2023-05-18T00:11:10.344Z,99964.88
2023-05-18T00:12:12.628Z,99963.42
2023-05-18T00:13:15.075Z,99963.31
2023-05-18T00:14:17.510Z,99965.11
2023-05-18T00:15:19.948Z,99969.50
2023-05-18T00:16:22.213Z,99966.95
2023-05-18T00:17:25.002Z,99971.37
2023-05-18T00:18:28.753Z,99965.93
2023-05-18T00:19:30.946Z,99972.76
2023-05-18T00:20:35.349Z,99976.10
2023-05-18T00:21:40.216Z,99968.34
2023-05-18T00:22:43.126Z,99968.22
2023-05-18T00:23:47.701Z,99970.85
2023-05-18T00:24:50.559Z,99974.34
2023-05-18T00:25:52.785Z,99971.08
2023-05-18T00:26:55.369Z,99971.18
2023-05-18T00:27:58.078Z,99968.86
2023-05-18T00:29:00.486Z,99968.86
2023-05-18T00:30:04.616Z,99967.17
2023-05-18T00:31:07.470Z,99966.12
2023-05-18T00:32:10.292Z,99969.50
2023-05-18T00:33:12.617Z,99975.80
2023-05-18T00:34:15.861Z,99971.48
2023-05-18T00:35:18.067Z,99970.44
2023-05-18T00:36:20.712Z,99971.18
2023-05-18T00:37:23.115Z,99972.02
2023-05-18T00:38:25.409Z,99969.27
2023-05-18T00:39:27.687Z,99973.70
2023-05-18T00:40:31.387Z,99967.51
2023-05-18T00:41:33.711Z,99973.48
2023-05-18T00:42:37.234Z,99969.09
2023-05-18T00:43:42.546Z,99963.83
2023-05-18T00:44:45.074Z,99963.83
2023-05-18T00:45:47.713Z,99968.22
2023-05-18T00:46:51.566Z,99966.12
2023-05-18T00:47:53.849Z,99964.44
2023-05-18T00:49:01.052Z,99975.05
2023-05-18T00:50:03.923Z,99963.61
2023-05-18T00:51:06.385Z,99967.17
2023-05-18T00:52:09.044Z,99967.28
2023-05-18T00:53:11.515Z,99961.28
2023-05-18T00:54:14.371Z,99965.78
2023-05-18T00:55:18.276Z,99968.63
2023-05-18T00:56:24.951Z,99964.61
2023-05-18T00:57:29.140Z,99964.61
2023-05-18T00:58:31.550Z,99961.05
2023-05-18T00:59:34.227Z,99961.16
2023-05-18T01:00:38.236Z,99955.16
2023-05-18T01:01:44.289Z,99961.23
2023-05-18T01:02:46.792Z,99962.28
2023-05-18T01:03:49.200Z,99958.48
2023-05-18T01:04:52.224Z,99959.95
2023-05-18T01:05:56.374Z,99954.70
2023-05-18T01:07:00.602Z,99959.23
2023-05-18T01:08:03.120Z,99959.95
2023-05-18T01:09:08.381Z,99955.32
2023-05-18T01:10:13.026Z,99956.98
2023-05-18T01:11:34.410Z,99957.38
2023-05-18T01:14:24.143Z,99961.86
2023-05-18T01:17:14.523Z,99951.14
2023-05-18T01:18:24.537Z,99959.71
2023-05-18T01:19:44.925Z,99953.92
2023-05-18T01:20:51.060Z,99960.97
2023-05-18T01:22:00.255Z,99960.11
2023-05-18T01:23:30.028Z,99956.66
2023-05-18T01:24:45.000Z,99958.64
2023-05-18T01:25:56.913Z,99961.95
2023-05-18T01:27:01.523Z,99957.45
2023-05-18T01:28:07.936Z,99963.64
2023-05-18T01:29:13.499Z,99967.09
2023-05-18T01:30:17.485Z,99964.28
2023-05-18T01:31:20.449Z,99968.02
2023-05-18T01:32:22.759Z,99967.20
2023-05-18T01:33:26.032Z,99972.44
2023-05-18T01:34:28.787Z,99968.88
2023-05-18T01:35:33.731Z,99972.44
2023-05-18T01:36:36.463Z,99974.12
2023-05-18T01:37:39.324Z,99976.75
2023-05-18T01:38:44.331Z,99974.12
2023-05-18T01:39:47.031Z,99979.38
2023-05-18T01:41:10.108Z,99984.63
2023-05-18T01:42:18.736Z,99976.08
2023-05-18T01:43:25.146Z,99977.01
2023-05-18T01:44:32.286Z,99978.87
2023-05-18T01:45:39.016Z,99986.85
2023-05-18T01:47:12.415Z,99979.09
2023-05-18T01:48:18.281Z,99984.34
2023-05-18T01:49:33.042Z,99985.34
2023-05-18T01:50:38.436Z,99982.17
2023-05-18T01:51:47.341Z,99976.93
2023-05-18T01:54:08.051Z,99982.65
2023-05-18T01:55:14.999Z,99987.81
2023-05-18T01:56:19.981Z,99987.81
2023-05-18T01:57:26.236Z,99986.88
2023-05-18T01:58:28.622Z,99990.44
2023-05-18T01:59:31.143Z,99987.37
2023-05-18T02:00:35.060Z,99995.30
2023-05-18T02:01:38.102Z,99991.75
2023-05-18T02:02:41.571Z,99991.20
2023-05-18T02:03:44.520Z,99998.52
2023-05-18T02:04:47.165Z,99993.34
2023-05-18T02:05:50.284Z,99998.69
2023-05-18T02:06:54.074Z,99998.69
2023-05-18T02:07:57.661Z,99994.38
2023-05-18T02:09:00.606Z,99995.31
2023-05-18T02:10:03.430Z,100002.25
2023-05-18T02:11:06.776Z,99992.70
2023-05-18T02:12:10.078Z,100001.52
2023-05-18T02:13:12.517Z,99998.14
2023-05-18T02:14:15.105Z,99998.59
2023-05-18T02:15:17.767Z,100003.94
2023-05-18T02:16:20.102Z,100002.25
2023-05-18T02:17:24.208Z,100003.38
2023-05-18T02:18:28.347Z,100002.45
2023-05-18T02:19:32.998Z,100004.31
2023-05-18T02:20:37.143Z,100004.14
2023-05-18T02:21:42.023Z,100004.31
2023-05-18T02:22:45.486Z,100000.86
2023-05-18T02:23:48.419Z,99999.93
2023-05-18T02:24:51.377Z,99998.24
2023-05-18T02:25:56.746Z,99998.24
2023-05-18T02:27:01.350Z,100003.48
2023-05-18T02:28:03.798Z,100001.14
2023-05-18T02:29:06.388Z,99990.83
2023-05-18T02:30:12.511Z,100009.92
2023-05-18T02:31:15.478Z,100006.37
2023-05-18T02:32:18.035Z,100007.14
2023-05-18T02:33:23.298Z,100009.92
2023-05-18T02:34:26.921Z,100014.03
2023-05-18T02:35:29.594Z,100004.69
2023-05-18T02:36:34.741Z,100008.44
2023-05-18T02:37:41.738Z,100011.98
2023-05-18T02:38:45.718Z,100009.09
2023-05-18T02:39:48.030Z,100013.48
2023-05-18T02:40:50.504Z,100018.92
2023-05-18T02:41:52.859Z,100017.40
2023-05-18T02:42:55.630Z,100016.67
2023-05-18T02:43:59.002Z,100021.98
2023-05-18T02:45:01.935Z,100023.94
2023-05-18T02:46:05.361Z,100024.53
2023-05-18T02:47:08.424Z,100028.91
2023-05-18T02:48:12.683Z,100034.42
2023-05-18T02:49:15.024Z,100033.69
2023-05-18T02:50:17.796Z,100035.55
2023-05-18T02:51:21.255Z,100035.55
2023-05-18T02:52:23.756Z,100033.48
2023-05-18T02:53:26.145Z,100035.08
2023-05-18T02:54:31.227Z,100033.32
2023-05-18T02:55:34.525Z,100030.77
2023-05-18T02:56:40.886Z,100026.29
2023-05-18T02:57:46.569Z,100033.12
2023-05-18T02:58:49.992Z,100029.41
2023-05-18T02:59:56.939Z,100031.27
2023-05-18T03:00:59.870Z,100028.64
2023-05-18T03:02:04.782Z,100030.98
2023-05-18T03:03:09.185Z,100029.03
2023-05-18T03:04:13.496Z,100023.59
2023-05-18T03:05:19.730Z,100024.25
2023-05-18T03:06:25.781Z,100019.66
2023-05-18T03:07:30.843Z,100023.87
2023-05-18T03:08:33.308Z,100023.70
2023-05-18T03:09:35.791Z,100025.19
2023-05-18T03:10:38.810Z,100027.53
2023-05-18T03:11:41.589Z,100030.91
2023-05-18T03:12:44.838Z,100035.30
2023-05-18T03:13:48.027Z,100034.84
2023-05-18T03:14:51.050Z,100036.70
2023-05-18T03:15:53.336Z,100032.32
2023-05-18T03:16:57.366Z,100031.29
2023-05-18T03:18:00.098Z,100032.39
2023-05-18T03:19:02.726Z,100034.84
2023-05-18T03:20:11.037Z,100034.84
2023-05-18T03:21:13.501Z,100045.50
2023-05-18T03:22:15.853Z,100042.88
2023-05-18T03:23:19.616Z,100038.50
2023-05-18T03:24:22.236Z,100043.64
2023-05-18T03:25:25.113Z,100042.80
2023-05-18T03:26:29.695Z,100041.77
2023-05-18T03:27:34.038Z,100042.43
2023-05-18T03:28:38.114Z,100043.27
2023-05-18T03:29:40.563Z,100036.33
2023-05-18T03:30:43.117Z,100040.53
2023-05-18T03:31:45.730Z,100040.36
2023-05-18T03:32:49.553Z,100044.78
2023-05-18T03:33:52.031Z,100041.40
2023-05-18T03:34:54.871Z,100039.53
2023-05-18T03:36:00.356Z,100043.75
2023-05-18T03:37:03.557Z,100043.09
2023-05-18T03:38:07.102Z,100041.20
2023-05-18T03:39:11.443Z,100046.44
2023-05-18T03:40:16.138Z,100046.44
2023-05-18T03:41:19.146Z,100046.44
2023-05-18T03:42:21.398Z,100050.02
2023-05-18T03:43:25.275Z,100046.27
2023-05-18T03:44:28.887Z,100052.99
2023-05-18T03:45:32.779Z,100047.85
2023-05-18T03:46:35.799Z,100047.95
2023-05-18T03:47:38.876Z,100042.50
2023-05-18T03:48:41.331Z,100042.50
2023-05-18T03:49:43.775Z,100048.23
2023-05-18T03:50:46.681Z,100054.13
2023-05-18T03:51:51.888Z,100045.13
2023-05-18T03:52:55.151Z,100056.47
2023-05-18T03:53:57.819Z,100057.51
2023-05-18T03:55:01.414Z,100062.10
2023-05-18T03:56:03.946Z,100052.27
2023-05-18T03:57:06.454Z,100053.75
2023-05-18T03:58:09.007Z,100058.78
2023-05-18T03:59:11.165Z,100052.53
2023-05-18T04:00:15.206Z,100050.45
2023-05-18T04:01:22.176Z,100056.39
2023-05-18T04:02:26.070Z,100055.25
2023-05-18T04:03:29.989Z,100057.77
2023-05-18T04:04:32.709Z,100057.77
2023-05-18T04:05:34.979Z,100054.70
2023-05-18T04:06:37.687Z,100051.90
2023-05-18T04:07:41.762Z,100049.06
2023-05-18T04:08:45.570Z,100048.78
2023-05-18T04:09:48.875Z,100052.98
2023-05-18T04:10:51.932Z,100052.70
2023-05-18T04:11:55.815Z,100061.23
2023-05-18T04:12:57.977Z,100052.31
2023-05-18T04:14:00.450Z,100049.58
2023-05-18T04:15:03.555Z,100056.63
2023-05-18T04:16:07.877Z,100058.39
2023-05-18T04:17:10.810Z,100056.70
2023-05-18T04:18:13.785Z,100063.64
2023-05-18T04:19:18.548Z,100061.95
2023-05-18T04:20:21.100Z,100065.33
2023-05-18T04:21:23.547Z,100066.84
2023-05-18T04:22:28.793Z,100071.70
2023-05-18T04:23:32.806Z,100066.45
2023-05-18T04:24:35.732Z,100071.59
2023-05-18T04:25:38.789Z,100078.42
2023-05-18T04:26:41.899Z,100063.21
2023-05-18T04:27:44.748Z,100066.48
2023-05-18T04:28:48.712Z,100071.66
2023-05-18T04:29:52.287Z,100073.13
2023-05-18T04:30:54.925Z,100074.82
2023-05-18T04:31:59.031Z,100071.98
2023-05-18T04:33:03.486Z,100068.23
2023-05-18T04:34:08.415Z,100077.69
2023-05-18T04:35:11.816Z,100072.55
2023-05-18T04:36:18.455Z,100082.08
2023-05-18T04:37:22.733Z,100076.83
2023-05-18T04:38:26.454Z,100074.95
2023-05-18T04:39:29.571Z,100076.65
2023-05-18T04:40:33.307Z,100077.40
2023-05-18T04:41:36.648Z,100082.55
2023-05-18T04:42:42.384Z,100082.55
2023-05-18T04:43:45.109Z,100085.06
2023-05-18T04:44:48.339Z,100086.75
2023-05-18T04:45:50.923Z,100084.87
2023-05-18T04:46:55.537Z,100091.70
2023-05-18T04:47:59.575Z,100088.97
2023-05-18T04:49:03.011Z,100092.53
2023-05-18T04:50:08.118Z,100091.81
2023-05-18T04:51:10.851Z,100085.41
2023-05-18T04:52:13.308Z,100085.41
2023-05-18T04:53:17.602Z,100088.03
2023-05-18T04:54:20.201Z,100087.84
2023-05-18T04:55:25.148Z,100090.37
2023-05-18T04:56:30.129Z,100080.50
2023-05-18T04:57:32.363Z,100083.66
2023-05-18T04:58:36.577Z,100093.76
2023-05-18T05:00:52.295Z,100093.72
2023-05-18T05:01:55.587Z,100091.88
2023-05-18T05:02:59.947Z,100100.41
2023-05-18T05:04:03.378Z,100096.84
2023-05-18T05:05:06.895Z,100104.34
2023-05-18T05:06:10.996Z,100098.78
2023-05-18T05:07:13.550Z,100094.58
2023-05-18T05:08:17.542Z,100092.59
2023-05-18T05:09:20.977Z,100095.00
2023-05-18T05:10:23.502Z,100095.52
2023-05-18T05:11:25.940Z,100093.64
2023-05-18T05:12:28.131Z,100103.73
2023-05-18T05:13:30.401Z,100099.95
2023-05-18T05:14:33.396Z,100100.69
2023-05-18T05:15:36.361Z,100106.59
2023-05-18T05:16:39.337Z,100103.84
2023-05-18T05:17:43.494Z,100100.19
2023-05-18T05:18:47.400Z,100100.83
2023-05-18T05:19:51.448Z,100102.40
2023-05-18T05:20:55.674Z,100103.97
2023-05-18T05:21:58.124Z,100105.66
2023-05-18T05:23:01.851Z,100103.75
2023-05-18T05:24:05.463Z,100104.61
2023-05-18T05:25:08.533Z,100105.01
2023-05-18T05:26:12.171Z,100105.64
2023-05-18T05:27:14.376Z,100107.96
2023-05-18T05:28:17.584Z,100109.64
2023-05-18T05:29:20.982Z,100111.34
2023-05-18T05:30:23.561Z,100108.59
2023-05-18T05:31:26.062Z,100111.73
2023-05-18T05:32:28.507Z,100114.28
2023-05-18T05:33:31.148Z,100114.05
2023-05-18T05:34:33.528Z,100113.85
2023-05-18T05:35:36.813Z,100107.64
2023-05-18T05:36:39.482Z,100108.59
2023-05-18T05:37:42.746Z,100113.62
2023-05-18T05:38:45.235Z,100111.73
2023-05-18T05:39:48.571Z,100107.30
2023-05-18T05:40:52.842Z,100113.42
2023-05-18T05:41:56.977Z,100107.92
2023-05-18T05:42:59.979Z,100109.41
2023-05-18T05:44:02.250Z,100110.78
2023-05-18T05:45:06.256Z,100108.77
2023-05-18T05:46:11.679Z,100107.51
2023-05-18T05:47:15.198Z,100111.71
2023-05-18T05:48:18.131Z,100109.58
2023-05-18T05:49:21.340Z,100113.91
2023-05-18T05:50:24.226Z,100118.84
2023-05-18T05:51:28.444Z,100117.58
2023-05-18T05:52:31.447Z,100117.34
2023-05-18T05:53:33.781Z,100117.13
2023-05-18T05:54:37.138Z,100108.91
2023-05-18T05:55:41.360Z,100116.48
2023-05-18T05:56:46.356Z,100117.92
2023-05-18T05:57:49.955Z,100121.06
2023-05-18T05:58:52.532Z,100119.16
2023-05-18T05:59:55.453Z,100122.30
2023-05-18T06:00:58.595Z,100122.09
2023-05-18T06:02:01.487Z,100122.91
2023-05-18T06:03:04.391Z,100116.81
2023-05-18T06:04:12.081Z,100122.70
2023-05-18T06:05:14.929Z,100121.64
2023-05-18T06:06:18.243Z,100125.83
2023-05-18T06:07:20.716Z,100128.97
2023-05-18T06:08:24.401Z,100127.89
2023-05-18T06:09:27.570Z,100125.99
2023-05-18T06:10:30.719Z,100123.36
2023-05-18T06:11:34.241Z,100127.22
2023-05-18T06:12:36.735Z,100124.98
2023-05-18T06:13:40.293Z,100131.86
2023-05-18T06:14:43.927Z,100124.44
2023-05-18T06:15:46.382Z,100136.42
2023-05-18T06:16:49.533Z,100126.73
2023-05-18T06:17:52.482Z,100129.86
2023-05-18T06:18:55.311Z,100125.93
2023-05-18T06:19:57.814Z,100128.09
2023-05-18T06:21:00.724Z,100128.09
2023-05-18T06:22:03.244Z,100126.16
2023-05-18T06:23:07.494Z,100122.58
2023-05-18T06:24:28.250Z,100124.99
2023-05-18T06:26:56.615Z,100130.06
2023-05-18T06:28:07.622Z,100126.44
2023-05-18T06:29:14.978Z,100133.17
2023-05-18T06:30:31.237Z,100134.61
2023-05-18T06:31:47.686Z,100131.75
2023-05-18T06:32:51.955Z,100130.55
2023-05-18T06:33:54.275Z,100134.64
2023-05-18T06:34:57.294Z,100137.03
2023-05-18T06:35:59.838Z,100130.67
2023-05-18T06:37:04.355Z,100132.95
2023-05-18T06:38:06.826Z,100132.73
2023-05-18T06:39:09.347Z,100130.92
2023-05-18T06:40:13.455Z,100132.48
2023-05-18T06:41:16.276Z,100128.75
2023-05-18T06:42:19.247Z,100128.75
2023-05-18T06:43:29.901Z,100121.69
2023-05-18T06:44:36.197Z,100125.06
2023-05-18T06:45:43.116Z,100128.43
2023-05-18T06:46:49.094Z,100134.18
2023-05-18T06:47:54.942Z,100131.78
2023-05-18T06:48:59.129Z,100135.28
2023-05-18T06:50:02.230Z,100132.51
2023-05-18T06:51:06.401Z,100128.66
2023-05-18T06:52:10.498Z,100128.91
2023-05-18T06:53:13.618Z,100130.34
2023-05-18T06:54:16.668Z,100129.38
2023-05-18T06:55:19.699Z,100131.55
2023-05-18T06:56:22.740Z,100126.01
2023-05-18T06:57:28.025Z,100128.42
2023-05-18T06:58:33.898Z,100129.84
2023-05-18T06:59:37.890Z,100127.47
2023-05-18T07:00:40.533Z,100132.26
2023-05-18T07:01:43.278Z,100134.41
2023-05-18T07:02:46.831Z,100129.59
2023-05-18T07:03:49.759Z,100129.59
2023-05-18T07:04:54.644Z,100137.28
2023-05-18T07:05:56.829Z,100134.14
2023-05-18T07:07:04.764Z,100131.23
2023-05-18T07:08:07.444Z,100129.32
2023-05-18T07:09:10.035Z,100133.19
2023-05-18T07:10:12.819Z,100135.43
2023-05-18T07:11:17.802Z,100128.82
2023-05-18T07:12:20.622Z,100132.19
2023-05-18T07:13:23.293Z,100131.59
2023-05-18T07:14:28.826Z,100132.19
2023-05-18T07:15:31.294Z,100132.51
2023-05-18T07:16:34.930Z,100130.22
2023-05-18T07:17:41.545Z,100122.30
2023-05-18T07:18:43.823Z,100123.70
2023-05-18T07:19:47.774Z,100127.83
2023-05-18T07:20:50.793Z,100123.47
2023-05-18T07:21:55.878Z,100127.42
2023-05-18T07:22:58.230Z,100126.36
2023-05-18T07:24:02.907Z,100117.44
2023-05-18T07:25:06.802Z,100122.24
2023-05-18T07:26:11.396Z,100116.68
2023-05-18T07:27:13.836Z,100126.81
2023-05-18T07:28:17.676Z,100126.81
2023-05-18T07:29:20.459Z,100130.52
2023-05-18T07:30:24.074Z,100128.05
2023-05-18T07:31:27.320Z,100133.34
2023-05-18T07:32:29.932Z,100130.17
2023-05-18T07:33:32.455Z,100131.75
2023-05-18T07:34:34.872Z,100138.11
2023-05-18T07:35:37.589Z,100144.12
2023-05-18T07:36:40.054Z,100133.29
2023-05-18T07:37:42.460Z,100134.12
2023-05-18T07:38:45.252Z,100129.54
2023-05-18T07:39:47.434Z,100134.55
2023-05-18T07:40:50.677Z,100133.59
2023-05-18T07:41:53.009Z,100134.31
2023-05-18T07:42:55.521Z,100132.48
2023-05-18T07:43:57.798Z,100141.28
2023-05-18T07:45:00.379Z,100139.08
2023-05-18T07:46:03.054Z,100141.34
2023-05-18T07:47:06.347Z,100139.16
2023-05-18T07:48:08.774Z,100137.23
2023-05-18T07:49:13.376Z,100133.62
2023-05-18T07:50:16.227Z,100130.25
2023-05-18T07:51:18.738Z,100135.55
2023-05-18T07:52:20.914Z,100140.56
2023-05-18T07:53:23.862Z,100140.31
2023-05-18T07:54:27.063Z,100141.14
2023-05-18T07:55:29.919Z,100133.09
2023-05-18T07:56:32.967Z,100139.20
2023-05-18T07:57:36.143Z,100143.39
2023-05-18T07:58:38.949Z,100142.17
2023-05-18T07:59:41.374Z,100146.37
2023-05-18T08:00:44.284Z,100151.77
2023-05-18T08:01:48.447Z,100138.86
2023-05-18T08:02:50.882Z,100145.83
2023-05-18T08:03:54.130Z,100135.81
2023-05-18T08:04:57.616Z,100149.88
2023-05-18T08:06:00.271Z,100143.22
2023-05-18T08:07:04.494Z,100142.94
2023-05-18T08:08:10.299Z,100140.03
2023-05-18T08:09:13.794Z,100133.48
2023-05-18T08:10:16.980Z,100140.46
2023-05-18T08:11:19.290Z,100147.44
2023-05-18T08:12:22.722Z,100143.57
2023-05-18T08:13:25.167Z,100137.98
2023-05-18T08:14:27.405Z,100140.38
2023-05-18T08:15:30.035Z,100141.34
2023-05-18T08:16:35.147Z,100138.55
2023-05-18T08:17:37.677Z,100139.38
2023-05-18T08:18:40.330Z,100146.09
2023-05-18T08:19:43.450Z,100129.09
2023-05-18T08:20:47.904Z,100141.94
2023-05-18T08:21:50.774Z,100141.94
2023-05-18T08:22:52.956Z,100133.27
2023-05-18T08:23:55.734Z,100138.31
2023-05-18T08:24:59.760Z,100141.13
2023-05-18T08:26:06.472Z,100135.31
2023-05-18T08:27:10.588Z,100134.88
2023-05-18T08:28:12.784Z,100136.97
2023-05-18T08:29:15.878Z,100144.52
2023-05-18T08:30:21.264Z,100139.92
2023-05-18T08:31:23.748Z,100141.59
2023-05-18T08:32:26.196Z,100130.02
2023-05-18T08:33:28.967Z,100131.70
2023-05-18T08:34:31.295Z,100126.66
2023-05-18T08:35:33.640Z,100124.72
2023-05-18T08:36:36.797Z,100133.64
2023-05-18T08:37:40.227Z,100131.14
2023-05-18T08:38:42.744Z,100137.27
2023-05-18T08:39:46.706Z,100124.98
2023-05-18T08:40:56.080Z,100136.15
2023-05-18T08:42:41.497Z,100125.84
2023-05-18T08:43:36.976Z,100128.91
2023-05-18T08:46:10.202Z,100132.82
2023-05-18T08:47:15.802Z,100118.85
2023-05-18T08:48:21.789Z,100127.08
2023-05-18T08:49:26.152Z,100126.66
2023-05-18T08:50:31.184Z,100127.78
2023-05-18T08:51:35.501Z,100130.27
2023-05-18T08:52:41.477Z,100118.27
2023-05-18T08:53:44.550Z,100121.33
2023-05-18T08:54:50.337Z,100128.05
2023-05-18T08:55:58.749Z,100119.96
2023-05-18T08:57:02.748Z,100120.20
2023-05-18T08:58:07.329Z,100114.39
2023-05-18T08:59:12.255Z,100121.64
2023-05-18T09:00:15.512Z,100110.45
2023-05-18T09:01:17.767Z,100118.81
2023-05-18T09:02:20.168Z,100116.86
2023-05-18T09:03:24.951Z,100110.16
2023-05-18T09:04:28.266Z,100110.70
2023-05-18T09:05:31.611Z,100117.39
2023-05-18T09:06:35.397Z,100111.80
2023-05-18T09:07:41.348Z,100113.75
2023-05-18T09:08:45.995Z,100109.02
2023-05-18T09:09:49.381Z,100108.72
2023-05-18T09:10:52.242Z,100116.28
2023-05-18T09:11:56.564Z,100116.84
2023-05-18T09:13:02.991Z,100123.40
2023-05-18T09:14:05.479Z,100118.33
2023-05-18T09:15:10.422Z,100127.98
2023-05-18T09:16:13.139Z,100114.85
2023-05-18T09:17:15.465Z,100112.63
2023-05-18T09:18:17.637Z,100112.87
2023-05-18T09:19:20.124Z,100119.31
2023-05-18T09:20:25.794Z,100119.58
2023-05-18T09:21:30.763Z,100112.70
2023-05-18T09:22:36.496Z,100116.89
2023-05-18T09:23:40.956Z,100113.09
2023-05-18T09:24:43.992Z,100113.69
2023-05-18T09:25:49.430Z,100106.54
2023-05-18T09:26:52.832Z,100108.61
2023-05-18T09:27:55.223Z,100111.61
2023-05-18T09:28:59.462Z,100111.18
2023-05-18T09:30:01.711Z,100111.18
2023-05-18T09:31:07.339Z,100107.55
2023-05-18T09:32:11.498Z,100107.23
2023-05-18T09:33:18.122Z,100114.08
2023-05-18T09:34:21.055Z,100107.20
2023-05-18T09:35:25.086Z,100105.83
2023-05-18T09:36:29.170Z,100107.20
2023-05-18T09:37:32.536Z,100105.52
2023-05-18T09:38:37.781Z,100109.42
2023-05-18T09:39:43.003Z,100115.81
2023-05-18T09:40:46.781Z,100111.90
2023-05-18T09:41:57.565Z,100108.52
2023-05-18T09:43:04.348Z,100107.93
2023-05-18T09:44:12.621Z,100107.61
2023-05-18T09:45:18.906Z,100096.70
2023-05-18T09:46:21.650Z,100097.84
2023-05-18T09:47:23.907Z,100098.37
2023-05-18T09:48:26.014Z,100100.59
2023-05-18T09:49:31.162Z,100100.05
2023-05-18T09:50:34.302Z,100096.80
2023-05-18T09:51:37.637Z,100094.42
2023-05-18T09:52:45.477Z,100095.94
2023-05-18T09:53:51.024Z,100088.22
2023-05-18T09:55:00.334Z,100095.27
2023-05-18T09:56:09.084Z,100089.80
2023-05-18T09:57:11.646Z,100087.36
2023-05-18T09:58:16.916Z,100098.84
2023-05-18T09:59:20.433Z,100088.30
2023-05-18T10:00:25.719Z,100090.80
2023-05-18T10:01:29.937Z,100078.24
2023-05-18T10:02:32.222Z,100064.64
2023-05-18T10:04:49.563Z,100073.33
2023-05-18T10:05:52.026Z,100079.86
2023-05-18T10:06:54.383Z,100080.61
2023-05-18T10:07:57.548Z,100076.97
2023-05-18T10:09:04.964Z,100076.08
2023-05-18T10:10:09.350Z,100071.50
2023-05-18T10:11:12.018Z,100071.20
2023-05-18T10:12:16.268Z,100074.32
2023-05-18T10:13:20.290Z,100081.84
2023-05-18T10:14:28.190Z,100078.28
2023-05-18T10:15:33.008Z,100074.70
2023-05-18T10:16:35.589Z,100076.59
2023-05-18T10:17:39.555Z,100075.97
2023-05-18T10:18:42.651Z,100083.48
2023-05-18T10:19:46.424Z,100075.73
2023-05-18T10:20:50.471Z,100080.53
2023-05-18T10:21:54.222Z,100073.30
2023-05-18T10:23:00.283Z,100082.27
2023-05-18T10:24:05.313Z,100081.29
2023-05-18T10:25:11.237Z,100075.14
2023-05-18T10:26:17.005Z,100076.12
2023-05-18T10:27:23.985Z,100076.48
2023-05-18T10:28:28.995Z,100077.87
2023-05-18T10:29:33.596Z,100067.94
2023-05-18T10:30:37.217Z,100067.31
2023-05-18T10:31:41.592Z,100068.36
2023-05-18T10:32:47.518Z,100070.03
2023-05-18T10:33:51.578Z,100065.75
2023-05-18T10:34:56.291Z,100071.43
2023-05-18T10:35:59.280Z,100064.13
2023-05-18T10:37:04.214Z,100063.17
2023-05-18T10:38:06.878Z,100070.69
2023-05-18T10:39:11.389Z,100069.84
2023-05-18T10:40:15.127Z,100069.53
2023-05-18T10:41:22.269Z,100059.06
2023-05-18T10:42:25.987Z,100062.62
2023-05-18T10:43:28.791Z,100068.47
2023-05-18T10:44:31.643Z,100063.63
2023-05-18T10:45:36.735Z,100059.83
2023-05-18T10:46:40.706Z,100049.95
2023-05-18T10:47:43.926Z,100062.62
2023-05-18T10:48:49.683Z,100053.95
2023-05-18T10:49:54.000Z,100059.95
2023-05-18T10:50:57.738Z,100059.97
2023-05-18T10:52:02.622Z,100060.65
2023-05-18T10:53:06.346Z,100061.25
2023-05-18T10:54:12.569Z,100067.27
2023-05-18T10:55:14.955Z,100070.49
2023-05-18T10:56:19.067Z,100067.07
2023-05-18T10:57:21.670Z,100068.13
2023-05-18T10:58:27.048Z,100063.66
2023-05-18T10:59:30.234Z,100058.00
2023-05-18T11:00:36.037Z,100060.52
2023-05-18T11:01:41.449Z,100060.34
2023-05-18T11:02:44.888Z,100049.67
2023-05-18T11:03:49.080Z,100054.52
2023-05-18T11:04:54.252Z,100056.02
2023-05-18T11:06:09.795Z,100042.68
2023-05-18T11:07:13.789Z,100050.34
2023-05-18T11:08:26.128Z,100048.02
2023-05-18T11:09:29.461Z,100045.53
2023-05-18T11:10:42.840Z,100048.70
2023-05-18T11:11:54.359Z,100046.52
2023-05-18T11:14:11.962Z,100050.69
2023-05-18T11:15:14.282Z,100050.02
2023-05-18T11:16:18.143Z,100047.03
2023-05-18T11:17:31.392Z,100053.86
2023-05-18T11:18:44.002Z,100047.16
2023-05-18T11:20:08.744Z,100053.48
2023-05-18T11:21:35.039Z,100048.13
2023-05-18T11:22:49.228Z,100046.11
2023-05-18T11:24:16.400Z,100053.08
2023-05-18T11:25:28.766Z,100056.06
2023-05-18T11:26:31.861Z,100049.74
2023-05-18T11:27:34.806Z,100050.78
2023-05-18T11:28:48.296Z,100043.26
2023-05-18T11:29:57.789Z,100044.75
2023-05-18T11:30:55.276Z,100047.42
2023-05-18T11:31:58.024Z,100054.39
2023-05-18T11:34:39.822Z,100047.25
2023-05-18T11:36:07.175Z,100043.56
2023-05-18T11:37:10.242Z,100038.89
2023-05-18T11:38:13.084Z,100042.86
2023-05-18T11:39:19.991Z,100045.69
2023-05-18T11:40:46.236Z,100045.69
2023-05-18T11:42:00.776Z,100043.25
2023-05-18T11:43:03.671Z,100048.27
2023-05-18T11:44:15.394Z,100049.80
2023-05-18T11:45:17.701Z,100053.71
2023-05-18T11:46:21.650Z,100037.13
2023-05-18T11:47:27.446Z,100041.47
2023-05-18T11:48:31.651Z,100044.55
2023-05-18T11:49:46.689Z,100038.50
2023-05-18T11:50:51.640Z,100042.79
2023-05-18T11:52:03.688Z,100042.85
2023-05-18T11:53:06.168Z,100041.84
2023-05-18T11:54:08.639Z,100038.00
2023-05-18T11:55:17.483Z,100042.88
2023-05-18T11:56:20.864Z,100042.88
2023-05-18T11:57:42.151Z,100035.30
2023-05-18T11:58:44.555Z,100035.86
2023-05-18T11:59:49.434Z,100035.01
2023-05-18T12:00:52.952Z,100039.73
2023-05-18T12:01:57.973Z,100040.27
2023-05-18T12:03:02.055Z,100037.43
2023-05-18T12:04:06.710Z,100034.18
2023-05-18T12:05:11.249Z,100036.70
2023-05-18T12:06:15.650Z,100033.09
2023-05-18T12:07:19.911Z,100028.86
2023-05-18T12:08:24.678Z,100028.86
2023-05-18T12:09:29.006Z,100041.98
2023-05-18T12:10:34.814Z,100031.66
2023-05-18T12:11:38.115Z,100039.97
2023-05-18T12:12:45.665Z,100004.60
2023-05-18T12:13:52.353Z,100027.88
2023-05-18T12:14:57.649Z,100035.17
2023-05-18T12:16:02.025Z,100036.84
2023-05-18T12:17:05.121Z,100032.94
2023-05-18T12:18:07.396Z,100040.07
2023-05-18T12:19:11.101Z,100030.07
2023-05-18T12:20:19.593Z,100028.66
2023-05-18T12:21:24.177Z,100041.34
2023-05-18T12:22:27.153Z,100036.64
2023-05-18T12:23:37.684Z,100035.17
2023-05-18T12:24:41.080Z,100034.77
2023-05-18T12:25:43.600Z,100035.79
2023-05-18T12:26:47.944Z,100037.77
2023-05-18T12:27:52.892Z,100038.15
2023-05-18T12:28:56.088Z,100034.50
2023-05-18T12:30:01.262Z,100039.84
2023-05-18T12:31:08.995Z,100038.16
2023-05-18T12:32:13.672Z,100032.50